createdAt,value
2022-09-01T00:00:41.114Z,99779.86
2022-09-01T00:01:44.915Z,99777.16
2022-09-01T00:02:48.056Z,99781.71
2022-09-01T00:03:50.721Z,99777.16
2022-09-01T00:04:54.240Z,99787.95
2022-09-01T00:05:56.565Z,99785.25
2022-09-01T00:06:59.153Z,99781.71
2022-09-01T00:08:01.540Z,99783.45
2022-09-01T00:09:05.173Z,99782.55
2022-09-01T00:10:09.183Z,99785.25
2022-09-01T00:11:11.430Z,99784.41
2022-09-01T00:12:14.126Z,99780.76
2022-09-01T00:13:16.896Z,99778.91
2022-09-01T00:15:35.587Z,99779.89
2022-09-01T00:16:38.581Z,99779.02
2022-09-01T00:17:41.473Z,99783.69
2022-09-01T00:18:44.432Z,99791.66
2022-09-01T00:19:47.625Z,99781.71
2022-09-01T00:20:50.557Z,99781.71
2022-09-01T00:21:53.441Z,99783.57
2022-09-01T00:22:56.422Z,99783.57
2022-09-01T00:23:59.327Z,99781.71
2022-09-01T00:25:02.221Z,99790.80
2022-09-01T00:26:04.925Z,99787.11
2022-09-01T00:27:07.067Z,99780.00
2022-09-01T00:28:09.863Z,99785.39
2022-09-01T00:29:12.409Z,99792.51
2022-09-01T00:30:16.005Z,99787.25
2022-09-01T00:31:18.542Z,99785.39
2022-09-01T00:32:22.895Z,99790.80
2022-09-01T00:33:26.574Z,99784.55
2022-09-01T00:34:30.079Z,99792.65
2022-09-01T00:35:34.401Z,99795.34
2022-09-01T00:36:38.658Z,99786.38
2022-09-01T00:37:42.064Z,99792.80
2022-09-01T00:38:44.459Z,99791.78
2022-09-01T00:39:46.723Z,99799.03
2022-09-01T00:40:49.513Z,99793.64
2022-09-01T00:41:51.899Z,99797.17
2022-09-01T00:42:54.246Z,99796.33
2022-09-01T00:43:58.472Z,99798.19
2022-09-01T00:45:02.222Z,99793.64
2022-09-01T00:46:10.986Z,99803.59
2022-09-01T00:47:14.490Z,99796.33
2022-09-01T00:48:18.451Z,99797.17
2022-09-01T00:50:39.956Z,99792.83
2022-09-01T00:51:44.084Z,99791.92
2022-09-01T00:52:49.372Z,99791.08
2022-09-01T00:53:51.764Z,99802.86
2022-09-01T00:54:56.297Z,99795.64
2022-09-01T00:55:58.750Z,99797.46
2022-09-01T00:57:03.124Z,99798.34
2022-09-01T00:58:06.427Z,99792.94
2022-09-01T00:59:10.592Z,99806.43
2022-09-01T01:00:25.836Z,99794.63
2022-09-01T01:01:28.062Z,99795.64
2022-09-01T01:02:30.352Z,99799.17
2022-09-01T01:03:32.957Z,99796.48
2022-09-01T01:04:35.468Z,99794.77
2022-09-01T01:06:54.218Z,99789.41
2022-09-01T01:07:56.405Z,99794.77
2022-09-01T01:08:59.545Z,99794.91
2022-09-01T01:10:03.195Z,99793.08
2022-09-01T01:12:21.393Z,99793.96
2022-09-01T01:13:23.828Z,99787.69
2022-09-01T01:14:27.362Z,99793.08
2022-09-01T01:15:29.810Z,99793.08
2022-09-01T01:16:32.351Z,99796.63
2022-09-01T01:17:34.747Z,99790.39
2022-09-01T01:18:37.202Z,99783.27
2022-09-01T01:21:05.265Z,99787.58
2022-09-01T01:22:09.658Z,99789.37
2022-09-01T01:23:27.662Z,99795.78
2022-09-01T01:24:33.433Z,99796.63
2022-09-01T01:25:45.062Z,99793.20
2022-09-01T01:26:50.472Z,99796.77
2022-09-01T01:27:54.664Z,99800.30
2022-09-01T01:28:56.989Z,99790.50
2022-09-01T01:30:00.904Z,99798.59
2022-09-01T01:31:06.391Z,99789.66
2022-09-01T01:32:08.701Z,99790.64
2022-09-01T01:33:11.488Z,99795.89
2022-09-01T01:34:14.455Z,99785.25
2022-09-01T01:35:17.038Z,99790.64
2022-09-01T01:36:29.693Z,99786.96
2022-09-01T01:37:35.054Z,99792.36
2022-09-01T01:38:39.863Z,99794.21
2022-09-01T01:39:42.218Z,99793.34
2022-09-01T01:40:44.863Z,99791.52
2022-09-01T01:41:47.481Z,99795.05
2022-09-01T01:42:51.497Z,99789.66
2022-09-01T01:43:53.823Z,99789.66
2022-09-01T01:44:56.381Z,99790.64
2022-09-01T01:45:59.420Z,99792.36
2022-09-01T01:47:09.064Z,99792.36
2022-09-01T01:48:12.097Z,99788.81
2022-09-01T01:49:15.134Z,99784.41
2022-09-01T01:51:34.912Z,99782.44
2022-09-01T01:52:38.188Z,99786.96
2022-09-01T01:53:42.392Z,99783.42
2022-09-01T01:54:45.847Z,99784.41
2022-09-01T01:55:48.898Z,99777.16
2022-09-01T01:56:51.898Z,99778.02
2022-09-01T01:57:54.293Z,99774.31
2022-09-01T01:58:57.088Z,99769.93
2022-09-01T01:59:59.887Z,99781.56
2022-09-01T02:01:02.319Z,99770.77
2022-09-01T02:02:06.182Z,99777.00
2022-09-01T02:03:10.836Z,99776.02
2022-09-01T02:04:13.430Z,99781.42
2022-09-01T02:06:33.645Z,99778.61
2022-09-01T02:07:35.942Z,99775.04
2022-09-01T02:08:38.864Z,99770.63
2022-09-01T02:09:41.347Z,99771.50
2022-09-01T02:10:47.526Z,99772.34
2022-09-01T02:11:50.160Z,99775.04
2022-09-01T02:12:53.028Z,99770.63
2022-09-01T02:13:56.260Z,99772.34
2022-09-01T02:14:58.547Z,99772.34
2022-09-01T02:16:03.601Z,99778.58
2022-09-01T02:17:06.216Z,99778.58
2022-09-01T02:19:23.064Z,99778.61
2022-09-01T02:20:26.614Z,99771.50
2022-09-01T02:21:29.760Z,99776.89
2022-09-01T02:22:32.279Z,99782.30
2022-09-01T02:23:34.729Z,99783.27
2022-09-01T02:24:37.593Z,99780.58
2022-09-01T02:25:59.022Z,99781.42
2022-09-01T02:26:47.502Z,99784.12
2022-09-01T02:27:51.952Z,99774.20
2022-09-01T02:28:56.123Z,99774.20
2022-09-01T02:30:06.903Z,99770.63
2022-09-01T02:31:11.067Z,99776.02
2022-09-01T02:32:14.803Z,99777.88
2022-09-01T02:33:18.251Z,99780.58
2022-09-01T02:34:23.322Z,99773.47
2022-09-01T02:35:27.329Z,99777.00
2022-09-01T02:36:31.067Z,99778.02
2022-09-01T02:37:33.513Z,99774.45
2022-09-01T02:38:35.757Z,99778.02
2022-09-01T02:39:39.917Z,99776.31
2022-09-01T02:41:55.999Z,99778.06
2022-09-01T02:43:00.274Z,99776.31
2022-09-01T02:44:03.798Z,99780.87
2022-09-01T02:45:07.643Z,99780.87
2022-09-01T02:46:10.630Z,99779.01
2022-09-01T02:47:13.027Z,99769.78
2022-09-01T02:48:16.572Z,99769.78
2022-09-01T02:49:22.381Z,99779.99
2022-09-01T02:50:25.060Z,99781.70
2022-09-01T02:51:27.493Z,99783.56
2022-09-01T02:52:31.324Z,99787.10
2022-09-01T02:53:35.021Z,99785.25
2022-09-01T02:54:37.679Z,99788.96
2022-09-01T02:55:40.017Z,99784.55
2022-09-01T02:56:44.340Z,99784.55
2022-09-01T02:58:59.736Z,99782.55
2022-09-01T03:01:22.626Z,99789.80
2022-09-01T03:02:25.726Z,99789.07
2022-09-01T03:03:27.959Z,99790.93
2022-09-01T03:04:30.241Z,99790.93
2022-09-01T03:05:33.683Z,99795.34
2022-09-01T03:06:36.256Z,99796.33
2022-09-01T03:07:38.815Z,99789.94
2022-09-01T03:08:41.177Z,99795.34
2022-09-01T03:09:43.991Z,99799.86
2022-09-01T03:10:46.697Z,99800.73
2022-09-01T03:11:50.341Z,99799.86
2022-09-01T03:12:54.521Z,99801.72
2022-09-01T03:13:57.032Z,99799.86
2022-09-01T03:15:00.867Z,99788.23
2022-09-01T03:16:03.276Z,99795.48
2022-09-01T03:17:06.553Z,99800.73
2022-09-01T03:18:10.692Z,99796.33
2022-09-01T03:19:14.281Z,99795.48
2022-09-01T03:20:18.570Z,99799.02
2022-09-01T03:21:20.885Z,99806.27
2022-09-01T03:22:24.430Z,99802.70
2022-09-01T03:23:27.212Z,99804.42
2022-09-01T03:24:29.607Z,99800.00
2022-09-01T03:25:32.028Z,99810.80
2022-09-01T03:26:36.666Z,99802.70
2022-09-01T03:27:39.038Z,99806.42
2022-09-01T03:28:41.480Z,99804.70
2022-09-01T03:29:44.649Z,99807.55
2022-09-01T03:30:50.021Z,99806.81
2022-09-01T03:31:52.552Z,99801.56
2022-09-01T03:32:56.335Z,99806.12
2022-09-01T03:33:58.894Z,99799.99
2022-09-01T03:35:03.901Z,99799.16
2022-09-01T03:36:14.270Z,99805.53
2022-09-01T03:37:10.972Z,99802.98
2022-09-01T03:38:13.933Z,99803.12
2022-09-01T03:39:17.659Z,99801.41
2022-09-01T03:40:21.866Z,99811.35
2022-09-01T03:41:26.006Z,99807.92
2022-09-01T03:42:28.761Z,99811.64
2022-09-01T03:43:35.607Z,99815.45
2022-09-01T03:44:36.458Z,99812.91
2022-09-01T03:45:39.246Z,99807.51
2022-09-01T03:46:42.243Z,99812.03
2022-09-01T03:47:45.593Z,99814.87
2022-09-01T03:50:02.005Z,99815.03
2022-09-01T03:51:05.324Z,99807.20
2022-09-01T03:52:10.295Z,99817.26
2022-09-01T03:53:15.120Z,99816.41
2022-09-01T03:54:17.928Z,99817.26
2022-09-01T03:55:25.575Z,99817.40
2022-09-01T03:56:29.781Z,99816.55
2022-09-01T03:57:33.524Z,99820.23
2022-09-01T03:58:36.706Z,99819.39
2022-09-01T03:59:39.050Z,99817.68
2022-09-01T04:00:43.157Z,99824.92
2022-09-01T04:01:47.519Z,99825.91
2022-09-01T04:02:56.107Z,99827.88
2022-09-01T04:03:56.050Z,99824.33
2022-09-01T04:05:00.278Z,99826.33
2022-09-01T04:06:04.668Z,99826.47
2022-09-01T04:07:08.878Z,99829.16
2022-09-01T04:08:14.009Z,99834.55
2022-09-01T04:09:17.208Z,99828.30
2022-09-01T04:10:20.863Z,99836.24
2022-09-01T04:11:23.206Z,99836.24
2022-09-01T04:12:26.737Z,99832.56
2022-09-01T04:14:43.731Z,99832.31
2022-09-01T04:15:48.480Z,99831.44
2022-09-01T04:16:52.013Z,99829.59
2022-09-01T04:17:54.430Z,99829.59
2022-09-01T04:18:57.030Z,99825.91
2022-09-01T04:20:01.623Z,99826.75
2022-09-01T04:21:04.524Z,99832.14
2022-09-01T04:22:07.098Z,99831.16
2022-09-01T04:23:11.173Z,99834.70
2022-09-01T04:24:13.688Z,99840.97
2022-09-01T04:25:17.060Z,99837.28
2022-09-01T04:26:20.230Z,99837.28
2022-09-01T04:27:23.061Z,99839.98
2022-09-01T04:28:32.507Z,99840.83
2022-09-01T04:29:34.793Z,99830.03
2022-09-01T04:30:39.108Z,99838.12
2022-09-01T04:31:41.531Z,99839.84
2022-09-01T04:32:44.144Z,99838.97
2022-09-01T04:33:48.834Z,99845.23
2022-09-01T04:34:51.237Z,99840.69
2022-09-01T04:35:53.850Z,99848.77
2022-09-01T04:36:56.345Z,99846.92
2022-09-01T04:37:59.184Z,99849.61
2022-09-01T04:39:04.207Z,99849.61
2022-09-01T04:40:07.926Z,99859.42
2022-09-01T04:41:10.808Z,99850.48
2022-09-01T04:42:13.149Z,99855.01
2022-09-01T04:43:15.658Z,99851.33
2022-09-01T04:44:18.331Z,99845.94
2022-09-01T04:45:21.508Z,99851.33
2022-09-01T04:46:26.184Z,99850.48
2022-09-01T04:47:28.849Z,99845.94
2022-09-01T04:48:32.634Z,99854.02
2022-09-01T04:49:35.679Z,99855.74
2022-09-01T04:50:40.043Z,99849.50
2022-09-01T04:51:52.724Z,99847.80
2022-09-01T04:52:54.046Z,99848.63
2022-09-01T04:54:01.917Z,99850.34
2022-09-01T04:55:05.935Z,99853.05
2022-09-01T04:56:09.093Z,99850.34
2022-09-01T04:57:15.343Z,99849.50
2022-09-01T04:58:18.229Z,99855.74
2022-09-01T04:59:22.760Z,99856.72
2022-09-01T05:00:30.302Z,99853.19
2022-09-01T05:01:33.927Z,99860.41
2022-09-01T05:02:36.615Z,99862.99
2022-09-01T05:03:41.188Z,99855.88
2022-09-01T05:04:45.424Z,99856.72
2022-09-01T05:05:48.919Z,99852.31
2022-09-01T05:06:53.635Z,99849.61
2022-09-01T05:07:55.966Z,99853.19
2022-09-01T05:08:59.482Z,99846.92
2022-09-01T05:10:12.844Z,99847.80
2022-09-01T05:11:20.489Z,99846.92
2022-09-01T05:12:23.550Z,99846.92
2022-09-01T05:13:26.629Z,99843.23
2022-09-01T05:14:29.532Z,99839.70
2022-09-01T05:15:31.878Z,99834.45
2022-09-01T05:16:35.426Z,99839.70
2022-09-01T05:17:37.848Z,99830.73
2022-09-01T05:18:43.470Z,99835.15
2022-09-01T05:19:48.191Z,99837.00
2022-09-01T05:20:51.110Z,99836.87
2022-09-01T05:21:53.571Z,99840.41
2022-09-01T05:22:56.395Z,99843.09
2022-09-01T05:23:59.284Z,99838.58
2022-09-01T05:25:01.842Z,99842.95
2022-09-01T05:26:06.565Z,99842.95
2022-09-01T05:27:09.252Z,99841.14
2022-09-01T05:28:12.493Z,99841.98
2022-09-01T05:29:15.360Z,99836.44
2022-09-01T05:30:19.692Z,99836.44
2022-09-01T05:31:25.346Z,99839.14
2022-09-01T05:32:28.447Z,99843.69
2022-09-01T05:33:30.758Z,99843.69
2022-09-01T05:34:33.148Z,99841.84
2022-09-01T05:35:36.022Z,99836.44
2022-09-01T05:36:41.373Z,99838.30
2022-09-01T05:37:43.952Z,99833.75
2022-09-01T05:38:48.071Z,99841.84
2022-09-01T05:39:50.694Z,99841.70
2022-09-01T05:42:09.977Z,99833.48
2022-09-01T05:43:14.222Z,99839.88
2022-09-01T05:44:17.568Z,99835.31
2022-09-01T05:45:20.324Z,99841.55
2022-09-01T05:46:25.020Z,99837.03
2022-09-01T05:47:27.601Z,99845.12
2022-09-01T05:48:29.886Z,99845.97
2022-09-01T05:49:32.228Z,99843.27
2022-09-01T05:50:40.202Z,99845.83
2022-09-01T05:51:45.725Z,99847.68
2022-09-01T05:52:47.648Z,99850.38
2022-09-01T05:53:50.645Z,99844.98
2022-09-01T05:54:55.091Z,99848.52
2022-09-01T05:55:57.402Z,99850.38
2022-09-01T05:57:17.514Z,99849.54
2022-09-01T05:58:04.335Z,99841.00
2022-09-01T05:59:23.809Z,99841.00
2022-09-01T06:00:13.725Z,99853.91
2022-09-01T06:02:30.404Z,99849.42
2022-09-01T06:03:32.984Z,99847.68
2022-09-01T06:04:38.397Z,99847.68
2022-09-01T06:05:40.648Z,99841.45
2022-09-01T06:07:05.716Z,99846.84
2022-09-01T06:07:50.614Z,99844.14
2022-09-01T06:08:54.047Z,99846.84
2022-09-01T06:09:56.346Z,99842.28
2022-09-01T06:10:59.565Z,99842.28
2022-09-01T06:12:02.453Z,99840.43
2022-09-01T06:13:06.001Z,99836.89
2022-09-01T06:14:10.269Z,99840.43
2022-09-01T06:15:13.476Z,99835.91
2022-09-01T06:16:18.724Z,99845.83
2022-09-01T06:17:23.037Z,99845.83
2022-09-01T06:18:25.433Z,99846.70
2022-09-01T06:19:33.660Z,99841.30
2022-09-01T06:20:36.555Z,99841.30
2022-09-01T06:21:39.063Z,99839.45
2022-09-01T06:22:41.631Z,99836.75
2022-09-01T06:23:44.345Z,99848.37
2022-09-01T06:24:53.293Z,99837.59
2022-09-01T06:25:51.466Z,99838.47
2022-09-01T06:26:55.987Z,99835.77
2022-09-01T06:27:58.252Z,99835.77
2022-09-01T06:29:02.758Z,99836.61
2022-09-01T06:30:06.899Z,99833.08
2022-09-01T06:31:11.118Z,99834.78
2022-09-01T06:32:13.938Z,99841.16
2022-09-01T06:33:16.679Z,99838.47
2022-09-01T06:34:21.771Z,99841.02
2022-09-01T06:35:24.713Z,99841.16
2022-09-01T06:36:31.007Z,99839.30
2022-09-01T06:37:32.365Z,99839.30
2022-09-01T06:38:36.440Z,99834.89
2022-09-01T06:39:38.986Z,99844.70
2022-09-01T06:40:41.801Z,99841.16
2022-09-01T06:41:49.471Z,99838.61
2022-09-01T06:42:52.670Z,99842.98
2022-09-01T06:43:55.704Z,99842.00
2022-09-01T06:44:58.479Z,99843.86
2022-09-01T06:46:02.194Z,99841.86
2022-09-01T06:47:05.889Z,99830.23
2022-09-01T06:48:08.969Z,99844.42
2022-09-01T06:49:11.953Z,99844.42
2022-09-01T06:51:14.830Z,99845.30
2022-09-01T06:51:22.018Z,99846.97
2022-09-01T06:52:26.543Z,99851.53
2022-09-01T06:53:34.448Z,99838.88
2022-09-01T06:54:34.876Z,99846.97
2022-09-01T06:55:38.287Z,99838.88
2022-09-01T06:56:42.883Z,99832.64
2022-09-01T06:58:51.714Z,99844.28
2022-09-01T06:59:56.555Z,99835.34
2022-09-01T07:00:59.721Z,99839.90
2022-09-01T07:03:18.242Z,99844.42
2022-09-01T07:04:27.024Z,99841.72
2022-09-01T07:08:05.226Z,99841.86
2022-09-01T07:09:20.644Z,99843.58
2022-09-01T07:10:25.749Z,99845.58
2022-09-01T07:12:31.030Z,99851.84
2022-09-01T07:13:34.304Z,99855.48
2022-09-01T07:16:31.860Z,99857.34
2022-09-01T07:16:51.898Z,99852.79
2022-09-01T07:17:53.227Z,99856.36
2022-09-01T07:18:58.804Z,99852.65
2022-09-01T07:21:36.276Z,99854.51
2022-09-01T07:22:35.827Z,99856.22
2022-09-01T07:23:19.605Z,99854.37
2022-09-01T07:24:25.408Z,99864.31
2022-09-01T07:26:47.602Z,99860.62
2022-09-01T07:27:49.796Z,99851.67
2022-09-01T07:29:00.989Z,99862.45
2022-09-01T07:29:56.625Z,99850.83
2022-09-01T07:31:48.916Z,99851.67
2022-09-01T07:35:19.956Z,99853.91
2022-09-01T07:36:25.957Z,99858.75
2022-09-01T07:39:47.251Z,99860.23
2022-09-01T07:39:54.903Z,99856.13
2022-09-01T07:42:55.813Z,99845.30
2022-09-01T07:43:17.251Z,99860.16
2022-09-01T07:44:38.162Z,99861.16
2022-09-01T07:46:00.426Z,99850.52
2022-09-01T07:47:20.365Z,99862.42
2022-09-01T07:48:09.234Z,99860.57
2022-09-01T07:49:30.129Z,99863.68
2022-09-01T07:51:40.806Z,99852.12
2022-09-01T07:52:29.897Z,99856.66
2022-09-01T07:53:34.358Z,99857.64
2022-09-01T07:54:38.269Z,99846.02
2022-09-01T07:55:40.997Z,99848.72
2022-09-01T07:56:43.842Z,99855.92
2022-09-01T07:57:47.137Z,99843.33
2022-09-01T07:58:52.212Z,99847.73
2022-09-01T07:59:55.531Z,99853.83
2022-09-01T08:01:00.919Z,99857.37
2022-09-01T08:02:04.787Z,99847.46
2022-09-01T08:03:11.290Z,99851.84
2022-09-01T08:04:14.255Z,99850.16
2022-09-01T08:05:19.703Z,99846.59
2022-09-01T08:06:24.846Z,99850.30
2022-09-01T08:07:29.049Z,99845.89
2022-09-01T08:08:36.249Z,99847.00
2022-09-01T08:09:43.710Z,99857.45
2022-09-01T08:10:43.316Z,99859.12
2022-09-01T08:12:01.838Z,99850.57
2022-09-01T08:12:57.517Z,99859.90
2022-09-01T08:13:55.140Z,99853.80
2022-09-01T08:15:13.964Z,99852.22
2022-09-01T08:16:07.488Z,99850.38
2022-09-01T08:17:34.231Z,99847.55
2022-09-01T08:18:17.090Z,99851.81
2022-09-01T08:19:20.135Z,99842.89
2022-09-01T08:20:40.544Z,99843.17
2022-09-01T08:21:47.516Z,99843.30
2022-09-01T08:23:01.936Z,99848.42
2022-09-01T08:24:09.001Z,99838.63
2022-09-01T08:25:12.194Z,99834.08
2022-09-01T08:26:17.073Z,99832.13
2022-09-01T08:27:20.965Z,99838.35
2022-09-01T08:28:27.025Z,99836.66
2022-09-01T08:29:30.696Z,99841.18
2022-09-01T08:30:34.600Z,99839.59
2022-09-01T08:31:37.623Z,99836.91
2022-09-01T08:32:41.007Z,99841.31
2022-09-01T08:33:45.365Z,99841.31
2022-09-01T08:34:47.693Z,99842.05
2022-09-01T08:35:50.229Z,99836.53
2022-09-01T08:36:55.057Z,99833.70
2022-09-01T08:37:57.889Z,99835.28
2022-09-01T08:39:01.544Z,99833.84
2022-09-01T08:40:05.271Z,99828.59
2022-09-01T08:41:31.380Z,99828.59
2022-09-01T08:42:45.817Z,99825.89
2022-09-01T08:45:21.629Z,99839.52
2022-09-01T08:46:27.788Z,99834.21
2022-09-01T08:47:44.359Z,99838.70
2022-09-01T08:49:46.169Z,99824.73
2022-09-01T08:50:54.214Z,99827.29
2022-09-01T08:52:20.630Z,99835.50
2022-09-01T08:53:28.638Z,99829.14
2022-09-01T08:54:44.429Z,99830.86
2022-09-01T08:55:47.496Z,99830.75
2022-09-01T08:57:08.657Z,99826.20
2022-09-01T08:59:42.925Z,99820.17
2022-09-01T09:02:17.109Z,99830.67
2022-09-01T09:03:43.649Z,99820.69
2022-09-01T09:05:15.518Z,99823.24
2022-09-01T09:06:27.178Z,99825.94
2022-09-01T09:07:42.319Z,99821.42
2022-09-01T09:08:57.427Z,99821.80
2022-09-01T09:11:21.730Z,99837.86
2022-09-01T09:12:33.904Z,99831.50
2022-09-01T09:14:01.473Z,99845.94
2022-09-01T09:15:33.575Z,99824.30
2022-09-01T09:16:40.045Z,99830.38
2022-09-01T09:17:48.755Z,99832.47
2022-09-01T09:19:06.528Z,99830.05
2022-09-01T09:20:10.368Z,99816.72
2022-09-01T09:21:22.701Z,99846.07
2022-09-01T09:22:25.581Z,99852.46
2022-09-01T09:24:52.492Z,99829.54
2022-09-01T09:25:55.057Z,99832.27
2022-09-01T09:26:57.920Z,99835.70
2022-09-01T09:28:00.904Z,99832.87
2022-09-01T09:29:03.814Z,99842.53
2022-09-01T09:30:11.192Z,99820.39
2022-09-01T09:31:28.466Z,99826.78
2022-09-01T09:33:58.517Z,99833.91
2022-09-01T09:36:36.929Z,99823.34
2022-09-01T09:37:39.122Z,99831.36
2022-09-01T09:38:41.409Z,99823.88
2022-09-01T09:39:44.496Z,99834.39
2022-09-01T09:41:20.370Z,99829.71
2022-09-01T09:42:11.802Z,99832.41
2022-09-01T09:43:16.054Z,99827.16
2022-09-01T09:44:31.180Z,99843.84
2022-09-01T09:45:37.959Z,99829.33
2022-09-01T09:46:43.620Z,99835.08
2022-09-01T09:47:46.454Z,99831.55
2022-09-01T09:48:50.615Z,99828.72
2022-09-01T09:49:57.069Z,99826.87
2022-09-01T09:51:19.542Z,99851.70
2022-09-01T09:52:22.494Z,99828.32
2022-09-01T09:53:27.396Z,99828.11
2022-09-01T09:54:31.276Z,99828.50
2022-09-01T09:55:33.671Z,99831.33
2022-09-01T09:56:37.544Z,99823.73
2022-09-01T09:57:40.787Z,99823.47
2022-09-01T09:58:45.177Z,99855.77
2022-09-01T10:00:04.589Z,99851.14
2022-09-01T10:01:09.950Z,99831.59
2022-09-01T10:03:43.214Z,99828.32
2022-09-01T10:04:45.539Z,99837.05
2022-09-01T10:05:48.682Z,99838.64
2022-09-01T10:06:51.549Z,99839.48
2022-09-01T10:07:54.492Z,99841.06
2022-09-01T10:08:57.679Z,99848.17
2022-09-01T10:11:36.504Z,99836.11
2022-09-01T10:12:41.692Z,99836.03
2022-09-01T10:13:43.919Z,99840.54
2022-09-01T10:14:53.366Z,99845.08
2022-09-01T10:15:57.820Z,99850.20
2022-09-01T10:17:04.456Z,99843.97
2022-09-01T10:18:19.887Z,99826.10
2022-09-01T10:19:16.311Z,99843.97
2022-09-01T10:20:22.904Z,99850.06
2022-09-01T10:21:35.539Z,99834.44
2022-09-01T10:22:38.460Z,99832.02
2022-09-01T10:23:41.460Z,99840.80
2022-09-01T10:24:45.815Z,99836.88
2022-09-01T10:25:48.238Z,99829.27
2022-09-01T10:26:52.775Z,99831.56
2022-09-01T10:28:20.944Z,99824.09
2022-09-01T10:29:25.715Z,99834.59
2022-09-01T10:30:29.231Z,99824.66
2022-09-01T10:31:32.589Z,99818.70
2022-09-01T10:32:49.179Z,99842.06
2022-09-01T10:33:45.891Z,99842.46
2022-09-01T10:34:49.317Z,99843.44
2022-09-01T10:35:52.566Z,99823.88
2022-09-01T10:36:56.801Z,99829.50
2022-09-01T10:38:00.758Z,99817.05
2022-09-01T10:39:08.939Z,99832.80
2022-09-01T10:40:21.571Z,99831.96
2022-09-01T10:41:45.949Z,99823.14
2022-09-01T10:42:49.240Z,99819.48
2022-09-01T10:43:51.650Z,99826.45
2022-09-01T10:44:57.800Z,99793.88
2022-09-01T10:46:05.817Z,99838.53
2022-09-01T10:47:14.769Z,99841.80
2022-09-01T10:48:32.565Z,99829.08
2022-09-01T10:49:34.447Z,99824.30
2022-09-01T10:50:38.088Z,99819.28
2022-09-01T10:51:50.498Z,99820.39
2022-09-01T10:52:50.546Z,99816.59
2022-09-01T10:53:55.148Z,99832.47
2022-09-01T10:54:59.765Z,99813.76
2022-09-01T10:56:18.843Z,99804.23
2022-09-01T10:57:12.169Z,99804.23
2022-09-01T10:59:45.043Z,99811.61
2022-09-01T11:02:22.984Z,99805.11
2022-09-01T11:03:34.189Z,99819.55
2022-09-01T11:04:39.196Z,99813.19
2022-09-01T11:06:13.851Z,99806.69
2022-09-01T11:08:50.760Z,99810.73
2022-09-01T11:11:46.790Z,99808.98
2022-09-01T11:12:59.099Z,99818.09
2022-09-01T11:14:01.562Z,99811.13
2022-09-01T11:15:19.880Z,99802.84
2022-09-01T11:16:46.940Z,99808.48
2022-09-01T11:17:53.560Z,99811.88
2022-09-01T11:18:58.284Z,99802.23
2022-09-01T11:21:29.036Z,99807.59
2022-09-01T11:22:33.333Z,99801.25
2022-09-01T11:23:35.640Z,99784.40
2022-09-01T11:24:42.379Z,99782.81
2022-09-01T11:26:19.068Z,99792.12
2022-09-01T11:26:54.663Z,99796.77
2022-09-01T11:28:06.048Z,99794.56
2022-09-01T11:29:09.474Z,99799.10
2022-09-01T11:30:21.176Z,99791.75
2022-09-01T11:31:29.886Z,99788.48
2022-09-01T11:32:34.409Z,99791.27
2022-09-01T11:34:05.373Z,99794.83
2022-09-01T11:36:33.455Z,99800.80
2022-09-01T11:37:36.729Z,99801.66
2022-09-01T11:38:54.448Z,99799.81
2022-09-01T11:40:02.557Z,99800.66
2022-09-01T11:41:05.461Z,99798.84
2022-09-01T11:42:23.109Z,99811.55
2022-09-01T11:43:27.116Z,99800.92
2022-09-01T11:44:52.569Z,99800.79
2022-09-01T11:47:47.546Z,99808.66
2022-09-01T11:48:51.868Z,99804.97
2022-09-01T11:50:18.016Z,99805.23
2022-09-01T11:51:20.313Z,99811.59
2022-09-01T11:53:38.152Z,99800.59
2022-09-01T11:54:42.994Z,99795.94
2022-09-01T11:57:02.431Z,99797.38
2022-09-01T11:58:05.852Z,99808.14
2022-09-01T11:59:08.510Z,99800.08
2022-09-01T12:00:13.591Z,99796.28
2022-09-01T12:01:25.195Z,99800.45
2022-09-01T12:02:29.692Z,99815.73
2022-09-01T12:03:33.376Z,99800.79
2022-09-01T12:04:36.468Z,99801.66
2022-09-01T12:07:08.104Z,99810.34
2022-09-01T12:08:14.223Z,99796.53
2022-09-01T12:09:16.390Z,99800.91
2022-09-01T12:10:35.925Z,99809.98
2022-09-01T12:11:38.378Z,99825.02
2022-09-01T12:12:40.670Z,99800.91
2022-09-01T12:14:07.757Z,99813.38
2022-09-01T12:15:18.849Z,99816.95
2022-09-01T12:16:23.446Z,99794.42
2022-09-01T12:17:26.314Z,99796.40
2022-09-01T12:18:32.619Z,99803.36
2022-09-01T12:19:34.808Z,99796.14
2022-09-01T12:20:37.407Z,99791.46
2022-09-01T12:21:41.758Z,99792.07
2022-09-01T12:22:43.968Z,99790.83
2022-09-01T12:23:47.275Z,99795.68
2022-09-01T12:24:51.705Z,99781.86
2022-09-01T12:25:55.525Z,99785.02
2022-09-01T12:26:57.991Z,99784.75
2022-09-01T12:29:15.225Z,99782.39
2022-09-01T12:30:18.748Z,99787.72
2022-09-01T12:32:35.831Z,99779.09
2022-09-01T12:33:38.401Z,99789.66
2022-09-01T12:36:27.602Z,99780.14
2022-09-01T12:37:29.790Z,99781.66
2022-09-01T12:38:31.990Z,99778.56
2022-09-01T12:39:38.856Z,99804.64
2022-09-01T12:40:41.870Z,99828.27
2022-09-01T12:41:46.441Z,99803.46
2022-09-01T12:42:50.077Z,99794.52
2022-09-01T12:43:54.715Z,99779.23
2022-09-01T12:47:55.698Z,99781.98
2022-09-01T12:49:01.645Z,99780.48
2022-09-01T12:50:17.089Z,99771.56
2022-09-01T12:51:29.410Z,99778.49
2022-09-01T12:52:29.566Z,99782.63
2022-09-01T12:53:36.716Z,99780.41
2022-09-01T12:54:38.590Z,99784.69
2022-09-01T12:55:48.302Z,99784.41
2022-09-01T12:58:09.850Z,99779.63
2022-09-01T12:59:17.161Z,99787.84
2022-09-01T13:00:29.383Z,99794.71
2022-09-01T13:01:33.007Z,99781.92
2022-09-01T13:02:41.513Z,99770.42
2022-09-01T13:04:05.025Z,99760.39
2022-09-01T13:05:31.832Z,99777.38
2022-09-01T13:06:34.121Z,99776.14
2022-09-01T13:07:37.274Z,99778.42
2022-09-01T13:08:40.181Z,99778.19
2022-09-01T13:09:45.948Z,99772.53
2022-09-01T13:10:51.761Z,99774.95
2022-09-01T13:12:11.638Z,99771.14
2022-09-01T13:13:00.248Z,99762.80
2022-09-01T13:14:02.592Z,99768.05
2022-09-01T13:15:05.722Z,99772.34
2022-09-01T13:16:09.484Z,99767.56
2022-09-01T13:17:14.154Z,99762.74
2022-09-01T13:18:17.321Z,99765.30
2022-09-01T13:19:27.453Z,99759.66
2022-09-01T13:20:24.897Z,99761.34
2022-09-01T13:21:27.106Z,99748.62
2022-09-01T13:22:29.348Z,99758.41
2022-09-01T13:23:32.644Z,99757.40
2022-09-01T13:24:34.898Z,99759.98
2022-09-01T13:25:38.782Z,99776.86
2022-09-01T13:27:20.127Z,99784.09
2022-09-01T13:27:48.232Z,99785.48
2022-09-01T13:28:50.452Z,99778.77
2022-09-01T13:29:53.219Z,99779.04
2022-09-01T13:32:18.819Z,99769.30
2022-09-01T13:33:23.303Z,99769.84
2022-09-01T13:34:22.988Z,99771.55
2022-09-01T13:35:19.301Z,99773.84
2022-09-01T13:37:26.553Z,99771.51
2022-09-01T13:38:28.718Z,99766.69
2022-09-01T13:39:30.909Z,99769.27
2022-09-01T13:40:34.348Z,99765.44
2022-09-01T13:41:37.488Z,99764.18
2022-09-01T13:42:40.183Z,99764.91
2022-09-01T13:44:48.411Z,99764.50
2022-09-01T13:45:51.681Z,99764.64
2022-09-01T13:46:59.779Z,99771.28
2022-09-01T13:48:16.980Z,99758.94
2022-09-01T13:49:42.099Z,99761.77
2022-09-01T13:50:16.358Z,99766.17
2022-09-01T13:51:31.133Z,99766.03
2022-09-01T13:52:35.395Z,99764.91
2022-09-01T13:53:39.837Z,99769.33
2022-09-01T13:54:43.100Z,99764.50
2022-09-01T13:55:46.360Z,99765.10
2022-09-01T13:56:49.959Z,99752.47
2022-09-01T13:57:55.822Z,99752.47
2022-09-01T13:58:56.935Z,99754.05
2022-09-01T13:59:59.134Z,99749.36
2022-09-01T14:01:02.540Z,99749.25